Time;durP1;ratioP1;P1;durP2;ratioP2;P2;SDS_P1;SDS_P2;PMS_P1;PMS_P2;Temp;Humidity;BMP_temperature;BMP_pressure;BME280_temperature;BME280_humidity;BME280_pressure;Samples;Min_cycle;Max_cycle;Signal;HPM_P1;HPM_P2
2021/04/15 00:01:55;;;;;;;5.40;4.32;;;;;;;6.10;49.04;95291.81;5079401;28;20195;-70
2021/04/15 00:04:23;;;;;;;5.47;4.70;;;;;;;6.09;49.14;95285.00;5089212;28;20712;-72
2021/04/15 00:06:50;;;;;;;5.10;4.07;;;;;;;6.27;48.69;95286.81;5077570;28;20206;-71
2021/04/15 00:09:20;;;;;;;5.18;4.60;;;;;;;6.20;48.74;95300.91;5089536;28;20218;-71
2021/04/15 00:11:47;;;;;;;5.38;4.60;;;;;;;6.34;48.27;95303.16;5080348;28;21072;-73
2021/04/15 00:14:17;;;;;;;5.05;4.25;;;;;;;6.46;47.92;95311.03;5070224;28;20279;-73
2021/04/15 00:16:44;;;;;;;4.82;4.35;;;;;;;6.66;47.39;95301.91;5079856;28;20295;-71
2021/04/15 00:19:13;;;;;;;5.32;4.57;;;;;;;6.68;47.97;95302.50;5070090;28;20290;-73
2021/04/15 00:21:40;;;;;;;4.72;4.22;;;;;;;6.48;47.97;95304.56;5077925;28;20260;-73
2021/04/15 00:24:06;;;;;;;6.32;4.32;;;;;;;6.15;48.65;95299.75;5090414;28;20712;-73
2021/04/15 00:26:33;;;;;;;5.07;4.00;;;;;;;6.13;48.83;95301.00;5077276;28;20199;-72
2021/04/15 00:28:59;;;;;;;4.68;4.18;;;;;;;5.98;48.61;95298.78;5090192;28;20202;-72
2021/04/15 00:31:28;;;;;;;4.85;4.35;;;;;;;5.95;49.24;95299.19;5077469;28;20207;-75
2021/04/15 00:33:55;;;;;;;7.20;4.55;;;;;;;5.91;49.14;95292.81;5090408;28;20813;-74
2021/04/15 00:36:23;;;;;;;5.47;4.47;;;;;;;6.02;48.92;95293.94;5077790;28;20206;-71
2021/04/15 00:38:49;;;;;;;4.65;3.85;;;;;;;6.22;48.89;95298.91;5090197;28;20187;-74
2021/04/15 00:41:16;;;;;;;4.00;3.60;;;;;;;5.74;49.45;95290.97;5077837;28;20575;-73
2021/04/15 00:43:45;;;;;;;5.40;4.50;;;;;;;5.76;49.67;95283.78;5089462;28;20199;-72
2021/04/15 00:46:30;;;;;;;4.78;3.92;;;;;;;5.88;49.54;95288.06;5078266;28;20283;-73
2021/04/15 00:48:58;;;;;;;4.13;3.35;;;;;;;5.21;50.95;95279.47;5049753;28;20188;-70
2021/04/15 00:51:41;;;;;;;4.50;3.90;;;;;;;5.56;50.58;95277.97;5074303;28;20196;-73
2021/04/15 00:54:18;;;;;;;4.88;4.38;;;;;;;6.08;49.25;95288.63;5090054;28;20194;-74
2021/04/15 00:56:45;;;;;;;4.43;3.88;;;;;;;5.68;50.11;95284.03;5080321;28;20198;-73
2021/04/15 00:59:11;;;;;;;3.70;3.40;;;;;;;5.52;50.77;95282.00;5073453;28;20192;-70
2021/04/15 01:01:38;;;;;;;4.55;3.78;;;;;;;5.79;49.61;95278.13;5084527;28;20210;-71
2021/04/15 01:04:05;;;;;;;4.78;3.85;;;;;;;5.92;49.62;95278.03;5074014;28;20222;-74
2021/04/15 01:06:32;;;;;;;3.80;3.40;;;;;;;6.03;49.57;95277.28;5080070;28;20195;-71
2021/04/15 01:09:00;;;;;;;4.97;4.07;;;;;;;6.08;49.53;95272.22;5093576;28;20183;-70
2021/04/15 01:11:47;;;;;;;4.95;3.40;;;;;;;5.74;49.78;95280.59;5080631;28;20214;-72
2021/04/15 01:14:31;;;;;;;4.00;3.17;;;;;;;5.51;50.09;95270.03;5085804;28;20574;-72
2021/04/15 01:17:22;;;;;;;5.40;3.53;;;;;;;5.37;51.06;95274.53;5092595;28;20203;-73
2021/04/15 01:20:10;;;;;;;4.20;3.58;;;;;;;5.75;49.96;95266.56;5074262;28;20277;-72
2021/04/15 01:22:54;;;;;;;5.68;3.60;;;;;;;5.81;49.59;95260.50;5076170;28;20229;-73
2021/04/15 01:25:38;;;;;;;4.15;3.35;;;;;;;5.95;49.33;95272.38;5087400;28;20233;-74
2021/04/15 01:28:05;;;;;;;4.05;3.53;;;;;;;5.85;48.85;95272.09;5076027;28;20690;-77
2021/04/15 01:30:41;;;;;;;3.47;3.17;;;;;;;5.50;49.35;95268.41;5073279;28;20211;-73
2021/04/15 01:33:10;;;;;;;4.00;3.30;;;;;;;5.64;49.70;95280.31;5092977;28;20218;-73
2021/04/15 01:35:52;;;;;;;3.75;3.30;;;;;;;5.65;49.17;95263.69;5093533;28;20180;-75
2021/04/15 01:38:28;;;;;;;3.80;3.30;;;;;;;5.85;49.13;95277.31;5077937;28;20307;-69
2021/04/15 01:41:07;;;;;;;3.47;3.13;;;;;;;5.70;49.05;95253.41;5073292;28;20202;-73
2021/04/15 01:43:49;;;;;;;3.63;3.33;;;;;;;6.19;48.46;95279.31;5072755;28;20689;-72
2021/04/15 01:46:19;;;;;;;4.45;3.80;;;;;;;6.07;48.48;95276.66;5072768;28;20204;-73
2021/04/15 01:48:49;;;;;;;4.10;3.60;;;;;;;6.00;48.85;95282.94;5070973;28;20195;-75
2021/04/15 01:51:15;;;;;;;4.43;4.03;;;;;;;5.98;49.17;95272.75;5072885;28;20220;-70
2021/04/15 01:53:58;;;;;;;5.80;4.10;;;;;;;5.77;49.74;95280.16;5072329;28;20196;-72
2021/04/15 01:56:37;;;;;;;4.60;3.78;;;;;;;5.93;49.48;95264.03;5072874;28;20188;-71
2021/04/15 01:59:17;;;;;;;4.38;3.92;;;;;;;6.29;48.55;95274.38;5072622;28;20211;-71
2021/04/15 02:01:48;;;;;;;5.20;4.70;;;;;;;6.10;48.74;95265.81;5072516;28;20237;-70
2021/04/15 02:04:20;;;;;;;4.82;4.32;;;;;;;6.28;48.42;95264.97;5072458;28;20212;-72
2021/04/15 02:06:54;;;;;;;4.00;3.65;;;;;;;6.04;48.92;95263.25;5083946;28;20713;-74
2021/04/15 02:09:22;;;;;;;4.60;4.15;;;;;;;5.96;48.82;95273.97;5091488;28;20319;-69
2021/04/15 02:12:00;;;;;;;4.68;3.78;;;;;;;5.75;49.26;95256.97;5092104;28;20245;-73
2021/04/15 02:14:34;;;;;;;5.07;3.92;;;;;;;5.90;48.95;95269.63;5092731;28;20187;-73
2021/04/15 02:17:04;;;;;;;6.32;4.35;;;;;;;6.22;48.31;95278.88;5092904;28;20187;-72
2021/04/15 02:19:39;;;;;;;4.93;4.35;;;;;;;5.99;48.83;95282.13;5092787;28;20209;-71
2021/04/15 02:22:19;;;;;;;5.70;4.30;;;;;;;6.39;48.02;95286.84;5090911;28;20191;-74
2021/04/15 02:25:00;;;;;;;5.55;4.45;;;;;;;6.62;47.81;95279.16;5090316;28;20381;-74
2021/04/15 02:27:43;;;;;;;5.43;4.82;;;;;;;6.69;47.99;95291.06;5086904;28;20206;-75
2021/04/15 02:30:38;;;;;;;6.22;5.18;;;;;;;6.40;48.49;95296.28;5086700;28;20280;-71
2021/04/15 02:33:12;;;;;;;5.50;4.63;;;;;;;6.71;48.29;95283.84;5071503;28;20188;-75
2021/04/15 02:35:42;;;;;;;5.97;5.30;;;;;;;6.67;48.41;95287.09;5072556;28;20651;-71
2021/04/15 02:38:10;;;;;;;6.40;4.82;;;;;;;6.85;48.17;95290.44;5071640;28;20216;-75
2021/04/15 02:40:50;;;;;;;5.22;4.43;;;;;;;6.71;47.71;95281.25;5079839;28;20199;-72
2021/04/15 02:43:25;;;;;;;6.60;4.97;;;;;;;6.90;48.41;95297.56;5091920;28;20187;-75
2021/04/15 02:45:57;;;;;;;6.50;4.93;;;;;;;6.73;48.72;95275.81;5092351;28;20211;-73
2021/04/15 02:48:28;;;;;;;6.97;5.43;;;;;;;6.75;49.17;95295.38;5092266;28;20184;-73
2021/04/15 02:51:01;;;;;;;6.68;5.60;;;;;;;6.60;49.47;95300.22;5092484;28;20309;-70
2021/04/15 02:54:14;;;;;;;7.32;5.78;;;;;;;6.69;49.02;95298.09;5091717;28;20260;-74
2021/04/15 02:56:49;;;;;;;7.18;5.22;;;;;;;6.74;49.69;95293.00;5076516;28;20298;-72
2021/04/15 02:59:24;;;;;;;7.07;5.57;;;;;;;6.69;50.08;95300.69;5092472;28;20289;-75
2021/04/15 03:01:58;;;;;;;7.38;5.97;;;;;;;6.70;50.11;95292.66;5085916;28;20198;-75
2021/04/15 03:04:24;;;;;;;7.53;6.35;;;;;;;6.61;50.28;95293.19;5071527;28;20247;-73
2021/04/15 03:06:55;;;;;;;8.15;5.40;;;;;;;6.40;49.73;95288.47;5071249;28;20595;-75
2021/04/15 03:09:23;;;;;;;6.00;4.85;;;;;;;6.42;49.65;95300.25;5070887;28;20296;-72
2021/04/15 03:11:53;;;;;;;5.45;4.47;;;;;;;6.31;49.33;95292.38;5081704;28;20545;-75
2021/04/15 03:14:28;;;;;;;5.68;5.03;;;;;;;6.38;49.77;95291.28;5071402;28;20211;-69
2021/04/15 03:16:59;;;;;;;5.95;4.90;;;;;;;6.45;49.57;95293.78;5071175;28;20195;-74
2021/04/15 03:19:33;;;;;;;6.53;4.60;;;;;;;6.60;49.07;95292.41;5082688;28;20278;-71
2021/04/15 03:22:18;;;;;;;6.22;4.80;;;;;;;6.54;49.51;95293.28;5090880;28;20187;-74
2021/04/15 03:24:47;;;;;;;6.93;5.70;;;;;;;6.47;49.91;95295.19;5091134;28;20211;-74
2021/04/15 03:27:50;;;;;;;6.53;5.53;;;;;;;6.35;50.03;95294.31;5091155;28;20187;-70
2021/04/15 03:30:25;;;;;;;7.55;6.03;;;;;;;6.26;50.71;95290.41;5090460;28;20205;-74
2021/04/15 03:32:56;;;;;;;6.97;5.95;;;;;;;6.51;50.62;95304.13;5070377;28;20643;-71
2021/04/15 03:35:38;;;;;;;6.75;6.03;;;;;;;6.51;51.08;95301.53;5070701;28;20192;-72
2021/04/15 03:38:16;;;;;;;7.53;6.72;;;;;;;6.35;51.70;95289.09;5070503;28;20195;-71
2021/04/15 03:40:47;;;;;;;7.82;6.55;;;;;;;6.30;52.12;95286.38;5088035;28;20195;-72
2021/04/15 03:43:35;;;;;;;7.88;6.47;;;;;;;6.34;51.89;95287.53;5070220;28;20650;-71
2021/04/15 03:46:24;;;;;;;8.55;7.18;;;;;;;6.39;52.08;95294.66;5050649;28;20216;-72
2021/04/15 03:48:59;;;;;;;8.98;7.30;;;;;;;6.36;52.09;95295.91;5054708;28;20192;-71
2021/04/15 03:51:38;;;;;;;8.52;7.38;;;;;;;6.24;52.09;95281.25;5090897;28;20198;-72
2021/04/15 03:54:09;;;;;;;10.48;7.57;;;;;;;6.21;52.89;95292.88;5090887;28;20278;-73
2021/04/15 03:56:41;;;;;;;12.52;8.75;;;;;;;6.36;52.50;95288.09;5086747;28;21533;-75
2021/04/15 03:59:17;;;;;;;9.38;8.38;;;;;;;6.43;52.42;95296.63;5077193;28;20298;-73
2021/04/15 04:01:53;;;;;;;12.75;8.40;;;;;;;6.10;53.43;95280.63;5078572;28;20609;-71
2021/04/15 04:04:40;;;;;;;12.00;8.85;;;;;;;6.04;53.58;95291.88;5075812;28;20709;-73
2021/04/15 04:07:15;;;;;;;12.10;8.30;;;;;;;5.92;53.90;95280.63;5079434;28;20640;-74
2021/04/15 04:09:48;;;;;;;10.25;8.35;;;;;;;6.34;53.13;95291.94;5088092;28;20293;-72
2021/04/15 04:12:27;;;;;;;12.30;9.20;;;;;;;6.39;52.95;95289.47;5075813;28;20210;-74
2021/04/15 04:15:28;;;;;;;10.88;8.45;;;;;;;6.62;52.61;95290.38;5092310;28;20286;-77
2021/04/15 04:18:01;;;;;;;11.15;8.40;;;;;;;6.60;51.68;95292.41;5091139;28;20210;-76
2021/04/15 04:20:30;;;;;;;10.52;8.57;;;;;;;6.62;52.14;95294.78;5089828;28;20272;-74
2021/04/15 04:23:23;;;;;;;9.18;7.70;;;;;;;6.23;52.69;95297.88;5073080;28;20278;-73
2021/04/15 04:25:52;;;;;;;9.13;7.57;;;;;;;6.20;52.74;95296.50;5070046;28;20227;-73
2021/04/15 04:28:28;;;;;;;8.45;7.20;;;;;;;6.18;52.56;95293.34;5062019;28;20192;-74
2021/04/15 04:31:00;;;;;;;11.60;8.52;;;;;;;6.31;52.80;95298.38;5048955;28;20275;-72
2021/04/15 04:33:47;;;;;;;10.07;8.45;;;;;;;6.37;52.35;95305.28;5055855;28;20200;-74
2021/04/15 04:36:15;;;;;;;12.27;8.25;;;;;;;6.52;52.37;95303.13;5056634;28;20187;-74
2021/04/15 04:38:42;;;;;;;10.57;8.15;;;;;;;6.22;53.06;95302.31;5056784;28;20196;-73
2021/04/15 04:41:51;;;;;;;11.15;7.35;;;;;;;6.16;52.48;95300.56;5056773;28;20207;-74
2021/04/15 04:44:24;;;;;;;8.85;7.63;;;;;;;6.29;52.33;95297.81;5056116;28;20200;-73
2021/04/15 04:46:59;;;;;;;11.45;7.55;;;;;;;6.27;52.59;95299.84;5063763;28;20191;-70
2021/04/15 04:49:34;;;;;;;11.70;7.95;;;;;;;6.34;52.68;95292.72;5076879;28;20245;-73
2021/04/15 04:52:08;;;;;;;10.00;8.30;;;;;;;6.44;52.16;95290.38;5056618;28;20294;-72
2021/04/15 04:54:38;;;;;;;9.82;8.13;;;;;;;6.54;55.97;95303.69;5056644;28;20287;-70
2021/04/15 04:57:24;;;;;;;11.48;8.98;;;;;;;6.78;52.85;95307.97;5070515;28;20199;-69
2021/04/15 04:59:59;;;;;;;47.22;36.67;;;;;;;6.81;52.43;95315.34;5055465;28;20218;-70
2021/04/15 05:02:25;;;;;;;12.07;9.13;;;;;;;6.62;52.88;95311.22;5055471;28;20192;-70
2021/04/15 05:05:00;;;;;;;11.80;8.40;;;;;;;6.88;52.74;95310.81;5055839;28;20706;-67
2021/04/15 05:07:28;;;;;;;9.73;8.50;;;;;;;6.87;51.92;95324.88;5055982;28;20199;-69
2021/04/15 05:09:56;;;;;;;11.52;8.95;;;;;;;7.22;51.22;95317.94;5056449;28;20250;-72
2021/04/15 05:12:32;;;;;;;11.27;9.23;;;;;;;7.10;50.97;95324.94;5056702;28;20268;-72
2021/04/15 05:15:01;;;;;;;11.52;8.65;;;;;;;6.70;51.76;95328.31;5056874;28;20196;-72
2021/04/15 05:17:38;;;;;;;12.70;9.43;;;;;;;6.76;51.77;95328.25;5057598;28;20197;-72
2021/04/15 05:20:11;;;;;;;15.52;8.80;;;;;;;6.52;52.10;95331.75;5056535;28;20204;-72
2021/04/15 05:22:44;;;;;;;13.85;8.93;;;;;;;6.45;52.41;95341.44;5056181;28;20670;-73
2021/04/15 05:25:19;;;;;;;46.33;35.40;;;;;;;6.36;54.49;95331.56;5056489;28;20220;-69
2021/04/15 05:27:46;;;;;;;17.38;12.90;;;;;;;6.47;53.15;95329.00;5056586;28;20199;-73
2021/04/15 05:30:34;;;;;;;13.63;9.57;;;;;;;6.61;52.18;95330.44;5056507;28;20189;-70
2021/04/15 05:33:04;;;;;;;14.98;9.70;;;;;;;6.50;52.75;95328.56;5055124;28;20767;-77
2021/04/15 05:35:37;;;;;;;10.55;8.15;;;;;;;6.22;53.02;95330.91;5055960;28;20200;-73
2021/04/15 05:38:08;;;;;;;11.02;8.65;;;;;;;6.33;52.82;95332.00;5056225;28;20192;-72
2021/04/15 05:40:36;;;;;;;10.55;8.15;;;;;;;6.41;52.40;95319.47;5055354;28;20613;-72
2021/04/15 05:43:42;;;;;;;11.32;8.68;;;;;;;6.29;52.86;95320.44;5054114;28;20287;-71
2021/04/15 05:46:13;;;;;;;12.45;9.02;;;;;;;6.43;52.66;95335.66;5049446;28;20232;-72
2021/04/15 05:48:42;;;;;;;11.45;7.95;;;;;;;6.45;51.55;95331.03;5047953;28;20200;-72
2021/04/15 05:51:21;;;;;;;11.20;8.95;;;;;;;6.82;51.29;95327.38;5052931;28;20758;-72
2021/04/15 05:53:52;;;;;;;9.15;8.02;;;;;;;6.30;51.76;95322.00;5052504;28;20675;-72
2021/04/15 05:56:50;;;;;;;12.60;9.10;;;;;;;6.64;51.42;95345.59;5052789;28;20205;-71
2021/04/15 05:59:44;;;;;;;9.93;8.60;;;;;;;6.51;51.36;95340.59;5052776;28;20192;-71
2021/04/15 06:02:29;;;;;;;10.18;7.95;;;;;;;6.34;51.50;95334.38;5052119;28;20204;-72
2021/04/15 06:05:16;;;;;;;12.32;8.38;;;;;;;6.56;51.42;95327.69;5052308;28;20216;-72
2021/04/15 06:07:44;;;;;;;13.23;10.13;;;;;;;6.60;51.50;95339.28;5052264;28;20270;-72
2021/04/15 06:10:13;;;;;;;11.43;8.57;;;;;;;5.86;52.47;95338.69;5052279;28;20236;-73
2021/04/15 06:12:39;;;;;;;12.35;9.38;;;;;;;6.36;52.27;95337.56;5051963;28;20516;-73
2021/04/15 06:15:21;;;;;;;13.02;9.93;;;;;;;6.68;51.59;95338.94;5052321;28;20195;-72
2021/04/15 06:18:19;;;;;;;13.15;9.63;;;;;;;6.36;51.67;95337.56;5052205;28;20223;-72
2021/04/15 06:20:53;;;;;;;11.60;9.40;;;;;;;6.44;52.09;95334.63;5052419;28;20204;-72
2021/04/15 06:23:27;;;;;;;13.30;10.20;;;;;;;5.87;53.39;95316.88;5051600;28;20205;-72
2021/04/15 06:25:56;;;;;;;12.57;9.57;;;;;;;6.38;52.52;95342.53;5052452;28;20217;-73
2021/04/15 06:28:30;;;;;;;11.70;9.23;;;;;;;6.36;52.84;95332.34;5051854;28;20202;-73
2021/04/15 06:31:04;;;;;;;13.43;9.38;;;;;;;6.59;52.17;95329.84;5052046;28;20681;-73
2021/04/15 06:33:31;;;;;;;12.80;9.25;;;;;;;6.72;51.28;95336.69;5051512;28;20666;-73
2021/04/15 06:36:00;;;;;;;12.43;9.18;;;;;;;6.65;51.88;95342.00;5052021;28;20200;-73
2021/04/15 06:38:52;;;;;;;9.77;8.05;;;;;;;6.53;51.53;95330.72;5051731;28;20296;-70
2021/04/15 06:41:44;;;;;;;11.70;9.10;;;;;;;6.54;51.56;95334.94;5051858;28;20258;-71
2021/04/15 06:44:29;;;;;;;10.82;8.95;;;;;;;6.40;51.52;95330.91;5050730;28;20209;-72
2021/04/15 06:47:14;;;;;;;10.98;8.77;;;;;;;5.91;52.12;95328.47;5051481;28;20275;-71
2021/04/15 06:50:15;;;;;;;10.80;8.50;;;;;;;6.57;51.05;95329.28;5051674;28;20198;-72
2021/04/15 06:53:09;;;;;;;12.98;9.15;;;;;;;6.92;50.10;95319.78;5050338;28;20212;-72
2021/04/15 06:55:44;;;;;;;13.23;9.85;;;;;;;6.70;50.23;95321.31;5051819;28;20620;-71
2021/04/15 06:58:11;;;;;;;14.20;9.43;;;;;;;6.56;50.55;95342.53;5051000;28;20665;-71
2021/04/15 07:00:55;;;;;;;13.38;10.50;;;;;;;6.86;49.91;95344.13;5051497;28;20675;-72
2021/04/15 07:03:56;;;;;;;13.13;10.32;;;;;;;6.39;50.64;95346.72;5051186;28;20192;-71
2021/04/15 07:07:00;;;;;;;13.02;9.93;;;;;;;6.82;49.79;95348.19;5051943;28;20330;-71
2021/04/15 07:10:03;;;;;;;12.15;9.68;;;;;;;7.11;49.63;95341.38;5050824;28;20354;-72
2021/04/15 07:13:03;;;;;;;13.73;10.43;;;;;;;6.90;49.68;95349.69;5050547;28;20579;-70
2021/04/15 07:15:42;;;;;;;13.93;10.98;;;;;;;6.91;49.83;95351.28;5051506;28;20203;-72
2021/04/15 07:18:30;;;;;;;12.50;9.15;;;;;;;7.06;49.21;95346.47;5050684;28;20290;-70
2021/04/15 07:21:31;;;;;;;11.57;9.40;;;;;;;6.59;50.76;95353.28;5051237;28;20201;-72
2021/04/15 07:24:35;;;;;;;12.88;10.25;;;;;;;7.14;49.99;95356.56;5051248;28;20181;-71
2021/04/15 07:27:22;;;;;;;13.27;10.45;;;;;;;6.82;49.77;95350.81;5050564;28;20204;-70
2021/04/15 07:30:13;;;;;;;13.90;9.73;;;;;;;6.85;49.86;95342.53;5067198;28;20634;-72
2021/04/15 07:33:02;;;;;;;13.52;10.30;;;;;;;7.31;49.01;95346.28;5078631;28;20583;-71
2021/04/15 07:35:44;;;;;;;12.43;9.10;;;;;;;6.95;49.74;95352.44;5067524;28;20649;-71
2021/04/15 07:38:21;;;;;;;14.10;9.45;;;;;;;6.83;49.54;95339.34;5072244;28;20203;-71
2021/04/15 07:41:27;;;;;;;14.13;10.30;;;;;;;6.83;49.63;95355.00;5070141;28;20638;-71
2021/04/15 07:44:11;;;;;;;13.05;9.88;;;;;;;7.24;48.75;95367.25;5090629;28;20201;-72
2021/04/15 07:47:19;;;;;;;11.75;9.27;;;;;;;7.17;48.19;95361.34;5070866;28;20236;-73
2021/04/15 07:50:16;;;;;;;14.93;10.07;;;;;;;7.50;47.90;95361.63;5065139;28;20189;-73
2021/04/15 07:53:15;;;;;;;14.02;9.68;;;;;;;7.73;47.24;95340.78;5076988;28;20282;-71
2021/04/15 07:55:42;;;;;;;15.18;9.88;;;;;;;7.25;48.02;95363.63;5064209;28;20292;-70
2021/04/15 07:58:23;;;;;;;19.95;10.68;;;;;;;7.58;48.04;95363.09;5050490;28;20193;-72
2021/04/15 08:01:18;;;;;;;13.32;10.15;;;;;;;7.41;48.66;95372.63;5054542;28;20191;-72
2021/04/15 08:03:56;;;;;;;15.88;11.43;;;;;;;7.54;47.33;95356.75;5069486;28;20209;-71
2021/04/15 08:06:32;;;;;;;16.92;11.93;;;;;;;7.74;47.23;95357.22;5069840;28;20223;-71
2021/04/15 08:09:10;;;;;;;14.63;11.05;;;;;;;7.66;47.14;95366.19;5068448;28;20231;-72
2021/04/15 08:11:48;;;;;;;12.30;10.00;;;;;;;7.32;47.72;95363.53;5069874;28;20188;-73
2021/04/15 08:14:38;;;;;;;13.52;10.80;;;;;;;6.95;48.77;95371.44;5070487;28;20230;-71
2021/04/15 08:17:29;;;;;;;14.23;10.57;;;;;;;7.11;48.11;95365.63;5070359;28;20199;-73
2021/04/15 08:20:23;;;;;;;14.60;11.07;;;;;;;7.22;48.56;95375.25;5070278;28;20199;-71
2021/04/15 08:23:04;;;;;;;16.55;11.43;;;;;;;7.22;48.93;95373.69;5068363;28;20204;-72
2021/04/15 08:25:42;;;;;;;16.33;11.38;;;;;;;7.30;48.21;95370.78;5069967;28;20306;-72
2021/04/15 08:28:27;;;;;;;16.05;10.80;;;;;;;7.26;48.60;95372.22;5069651;28;20187;-72
2021/04/15 08:31:21;;;;;;;14.27;10.23;;;;;;;7.18;48.07;95371.53;5069968;28;20727;-75
2021/04/15 08:33:56;;;;;;;14.40;10.93;;;;;;;7.60;48.00;95361.06;5070028;28;20202;-73
2021/04/15 08:36:48;;;;;;;14.00;10.63;;;;;;;7.93;47.36;95361.31;5069987;28;20205;-72
2021/04/15 08:39:38;;;;;;;14.20;10.50;;;;;;;7.81;46.17;95363.91;5070449;28;20219;-73
2021/04/15 08:42:11;;;;;;;20.15;11.00;;;;;;;7.79;47.11;95365.19;5069614;28;20200;-72
2021/04/15 08:44:54;;;;;;;18.90;11.65;;;;;;;7.85;46.58;95354.63;5069899;28;20211;-73
2021/04/15 08:47:42;;;;;;;15.00;11.40;;;;;;;8.21;46.40;95354.38;5069706;28;20196;-73
2021/04/15 08:50:21;;;;;;;22.27;12.60;;;;;;;7.56;47.91;95363.34;5069908;28;20203;-71
2021/04/15 08:53:13;;;;;;;20.88;12.50;;;;;;;7.69;48.22;95364.94;5069464;28;20191;-73
2021/04/15 08:55:46;;;;;;;13.48;11.32;;;;;;;7.60;47.95;95361.06;5069941;28;20206;-71
2021/04/15 08:58:45;;;;;;;17.90;12.27;;;;;;;7.65;48.04;95353.34;5069372;28;20210;-73
2021/04/15 09:01:40;;;;;;;13.57;11.32;;;;;;;7.66;47.92;95360.97;5069428;28;20294;-72
2021/04/15 09:04:16;;;;;;;13.73;10.38;;;;;;;7.80;46.95;95357.13;5069809;28;20200;-74
2021/04/15 09:07:23;;;;;;;16.42;11.45;;;;;;;7.61;47.22;95360.06;5069111;28;20605;-72
2021/04/15 09:10:22;;;;;;;16.55;11.40;;;;;;;7.76;47.14;95360.41;5056958;28;20251;-72
2021/04/15 09:13:10;;;;;;;15.57;11.10;;;;;;;7.98;46.70;95369.25;5069371;28;20200;-71
2021/04/15 09:15:57;;;;;;;23.17;15.10;;;;;;;7.53;47.25;95360.38;5069745;28;20188;-72
2021/04/15 09:18:34;;;;;;;12.65;9.88;;;;;;;7.38;47.28;95360.00;5071114;28;20206;-72
2021/04/15 09:21:16;;;;;;;18.23;11.38;;;;;;;7.27;47.98;95355.56;5073606;28;20214;-72
2021/04/15 09:23:51;;;;;;;15.55;11.45;;;;;;;7.65;47.03;95353.34;5073186;28;20278;-72
2021/04/15 09:26:51;;;;;;;14.48;10.40;;;;;;;7.79;46.49;95350.31;5073323;28;20254;-71
2021/04/15 09:29:36;;;;;;;15.15;10.50;;;;;;;7.86;45.64;95356.22;5072967;28;20191;-72
2021/04/15 09:32:25;;;;;;;14.35;10.93;;;;;;;7.66;45.59;95323.66;5072612;28;20183;-72
2021/04/15 09:35:06;;;;;;;13.65;10.70;;;;;;;7.93;45.43;95341.25;5071818;28;20242;-73
2021/04/15 09:37:51;;;;;;;17.77;11.82;;;;;;;8.17;45.27;95334.97;5072855;28;20272;-72
2021/04/15 09:40:34;;;;;;;17.63;11.50;;;;;;;8.27;45.04;95329.19;5073012;28;20199;-72
2021/04/15 09:43:49;;;;;;;16.55;11.13;;;;;;;8.23;45.50;95323.59;5072817;28;20266;-73
2021/04/15 09:46:47;;;;;;;14.02;9.88;;;;;;;8.25;44.51;95322.63;5073196;28;20226;-73
2021/04/15 09:49:26;;;;;;;13.48;9.32;;;;;;;8.18;44.59;95328.72;5072778;28;20200;-73
2021/04/15 09:51:58;;;;;;;12.25;9.88;;;;;;;8.14;44.24;95291.06;5072432;28;20223;-72
2021/04/15 09:55:04;;;;;;;17.85;9.73;;;;;;;8.70;43.51;95316.50;5073296;28;20188;-73
2021/04/15 09:57:37;;;;;;;12.07;9.60;;;;;;;9.07;43.49;95322.88;5072389;28;20197;-72
2021/04/15 10:00:20;;;;;;;12.88;10.48;;;;;;;9.17;43.37;95302.16;5071266;28;20227;-73
2021/04/15 10:02:57;;;;;;;13.55;9.57;;;;;;;8.97;43.18;95312.28;5072712;28;20284;-72
2021/04/15 10:05:29;;;;;;;11.70;9.32;;;;;;;8.97;43.51;95317.50;5072435;28;20219;-73
2021/04/15 10:08:03;;;;;;;12.18;9.20;;;;;;;8.90;43.06;95310.81;5072348;28;20203;-73
2021/04/15 10:10:34;;;;;;;10.93;8.45;;;;;;;8.74;43.23;95314.19;5072542;28;20238;-72
2021/04/15 10:13:25;;;;;;;14.20;9.07;;;;;;;8.43;43.29;95306.81;5072297;28;20279;-75
2021/04/15 10:16:07;;;;;;;13.52;10.10;;;;;;;8.81;42.98;95297.31;5072750;28;20188;-73
2021/04/15 10:18:46;;;;;;;11.15;9.32;;;;;;;9.17;43.18;95315.25;5072441;28;20202;-73
2021/04/15 10:21:30;;;;;;;12.27;9.50;;;;;;;8.58;43.50;95302.66;5072325;28;20222;-73
2021/04/15 10:24:11;;;;;;;12.35;8.77;;;;;;;8.38;43.90;95304.88;5072041;28;20434;-73
2021/04/15 10:27:07;;;;;;;15.73;10.38;;;;;;;8.55;43.22;95308.34;5071569;28;20253;-72
2021/04/15 10:29:52;;;;;;;13.10;10.40;;;;;;;8.41;43.98;95307.00;5071685;28;20226;-73
2021/04/15 10:32:34;;;;;;;15.50;10.20;;;;;;;8.86;42.89;95300.06;5071375;28;20207;-74
2021/04/15 10:35:28;;;;;;;11.50;8.82;;;;;;;8.62;43.44;95300.38;5072188;28;20286;-73
2021/04/15 10:38:22;;;;;;;11.30;8.82;;;;;;;8.34;43.96;95295.91;5071625;28;20212;-72
2021/04/15 10:40:53;;;;;;;14.65;9.48;;;;;;;8.66;43.01;95291.84;5071905;28;20204;-72
2021/04/15 10:44:09;;;;;;;12.73;9.63;;;;;;;8.79;42.32;95296.00;5071532;28;20200;-73
2021/04/15 10:46:47;;;;;;;25.83;14.85;;;;;;;8.47;42.12;95277.38;5071717;28;20234;-74
2021/04/15 10:49:47;;;;;;;17.38;11.52;;;;;;;8.94;41.61;95291.81;5070641;28;20207;-72
2021/04/15 10:52:26;;;;;;;11.67;8.70;;;;;;;9.65;39.42;95287.75;5070943;28;20191;-73
2021/04/15 10:55:24;;;;;;;14.27;9.07;;;;;;;10.08;38.66;95282.56;5071882;28;20461;-73
2021/04/15 10:57:52;;;;;;;8.67;7.23;;;;;;;10.04;38.31;95271.78;5071262;28;20203;-71
2021/04/15 11:00:33;;;;;;;17.52;11.13;;;;;;;9.66;38.51;95284.06;5071547;28;20441;-73
2021/04/15 11:03:18;;;;;;;8.60;7.30;;;;;;;9.59;37.97;95279.03;5071026;28;20198;-71
2021/04/15 11:05:47;;;;;;;9.67;6.40;;;;;;;9.47;37.31;95259.22;5070999;28;20501;-72
2021/04/15 11:08:32;;;;;;;10.17;7.13;;;;;;;9.86;37.22;95271.28;5070820;28;20433;-74
2021/04/15 11:11:19;;;;;;;10.20;7.73;;;;;;;10.07;36.25;95266.06;5071025;28;20458;-72
2021/04/15 11:13:45;;;;;;;11.07;7.70;;;;;;;10.37;36.49;95275.34;5069813;28;20928;-72
2021/04/15 11:16:23;;;;;;;36.83;12.17;;;;;;;9.93;36.75;95279.75;5071132;28;20438;-73
2021/04/15 11:18:50;;;;;;;9.37;7.17;;;;;;;10.44;36.29;95263.66;5071346;28;20951;-71
2021/04/15 11:21:20;;;;;;;9.73;7.27;;;;;;;10.58;36.24;95266.69;5071335;28;20438;-75
2021/04/15 11:23:49;;;;;;;8.10;6.63;;;;;;;10.46;36.75;95264.22;5070686;28;20446;-73
2021/04/15 11:26:18;;;;;;;9.77;7.20;;;;;;;10.97;38.08;95263.69;5071210;28;20868;-74
2021/04/15 11:28:45;;;;;;;29.67;16.73;;;;;;;10.93;36.59;95265.22;5070775;28;20422;-72
2021/04/15 11:31:12;;;;;;;28.93;15.50;;;;;;;10.31;37.64;95261.41;5070869;28;20850;-74
2021/04/15 11:33:43;;;;;;;13.40;8.23;;;;;;;10.15;37.42;95267.50;5070610;28;20456;-73
2021/04/15 11:36:27;;;;;;;21.17;12.00;;;;;;;10.66;38.16;95261.81;5070899;28;20469;-73
2021/04/15 11:39:05;;;;;;;10.47;8.17;;;;;;;11.11;37.63;95251.75;5070752;28;20954;-74
2021/04/15 11:41:38;;;;;;;8.30;6.60;;;;;;;10.95;35.79;95247.41;5069258;28;20480;-73
2021/04/15 11:44:07;;;;;;;12.47;7.07;;;;;;;11.00;34.94;95239.59;5070830;28;21006;-75
2021/04/15 11:46:54;;;;;;;8.07;6.67;;;;;;;10.72;36.71;95241.69;5069981;28;20489;-71
2021/04/15 11:49:25;;;;;;;8.10;6.10;;;;;;;10.52;35.96;95250.13;5070405;28;20985;-71
2021/04/15 11:52:04;;;;;;;8.13;6.43;;;;;;;10.63;37.13;95254.44;5068470;28;20445;-72
2021/04/15 11:54:55;;;;;;;8.77;6.77;;;;;;;10.91;35.95;95237.69;5070607;28;20814;-72
2021/04/15 11:57:34;;;;;;;10.57;6.93;;;;;;;11.88;35.12;95225.81;5069387;28;20446;-74
2021/04/15 12:00:00;;;;;;;10.37;6.90;;;;;;;11.99;34.33;95242.41;5070272;28;20450;-76
2021/04/15 12:02:32;;;;;;;9.83;6.10;;;;;;;11.55;34.40;95244.47;5069796;28;21033;-76
2021/04/15 12:05:30;;;;;;;17.00;9.80;;;;;;;11.19;34.24;95240.81;5070838;28;20537;-74
2021/04/15 12:07:59;;;;;;;8.80;6.37;;;;;;;11.36;35.02;95247.75;5070063;28;20450;-74
2021/04/15 12:10:30;;;;;;;10.77;6.43;;;;;;;11.79;34.99;95231.78;5070006;28;20497;-76
2021/04/15 12:13:05;;;;;;;7.83;5.97;;;;;;;11.31;33.35;95245.09;5070028;28;20470;-76
2021/04/15 12:15:44;;;;;;;8.33;6.60;;;;;;;11.12;34.67;95239.44;5070325;28;20556;-74
2021/04/15 12:18:27;;;;;;;9.57;6.73;;;;;;;10.66;34.65;95237.41;5069768;28;20901;-74
2021/04/15 12:21:01;;;;;;;9.33;6.30;;;;;;;10.24;35.79;95242.47;5070467;28;20442;-74
2021/04/15 12:23:54;;;;;;;8.90;6.40;;;;;;;10.38;35.68;95233.22;5070025;28;20953;-74
2021/04/15 12:26:47;;;;;;;8.03;6.83;;;;;;;10.70;35.57;95252.41;5068708;28;21050;-71
2021/04/15 12:29:31;;;;;;;14.30;11.57;;;;;;;10.67;36.38;95247.69;5070219;28;20469;-72
2021/04/15 12:32:06;;;;;;;11.30;8.17;;;;;;;10.71;35.89;95254.00;5069754;28;20446;-73